Terminal Aerodrome Forecast
Issued by NWS

Home | Current Version | Previous Version | Text Only | Print | Product List | Glossary On
Versions: 1 2 3 4 5 6 7 8 9 10 11 12 13 14
000
FTUS46 KPQR 222332
TAFONP
TAF
KONP 222332Z 2300/2324 VRB04KT P6SM -SHRAGS SCT030 BKN050 BKN100
     FM230800 10005KT P6SM VCSH SCT040 BKN060
     FM232000 27005KT P6SM VCSH SCT040=

USA.gov is the U.S. government's official web portal to all federal, state and local government web resources and services.